sensor_id;sensor_type;location;lat;lon;timestamp;temperature;humidity
71128;SHT30;59249;59.736;30.568;2023-04-15T00:01:16;2.01;45.98
71128;SHT30;59249;59.736;30.568;2023-04-15T00:03:46;1.95;45.81
71128;SHT30;59249;59.736;30.568;2023-04-15T00:06:16;1.98;46.07
71128;SHT30;59249;59.736;30.568;2023-04-15T00:08:45;1.96;46.30
71128;SHT30;59249;59.736;30.568;2023-04-15T00:11:16;2.04;46.32
71128;SHT30;59249;59.736;30.568;2023-04-15T00:13:46;1.93;46.44
71128;SHT30;59249;59.736;30.568;2023-04-15T00:16:15;1.89;46.22
71128;SHT30;59249;59.736;30.568;2023-04-15T00:18:44;1.83;46.43
71128;SHT30;59249;59.736;30.568;2023-04-15T00:21:13;1.90;46.23
71128;SHT30;59249;59.736;30.568;2023-04-15T00:23:42;1.87;46.49
71128;SHT30;59249;59.736;30.568;2023-04-15T00:26:11;1.79;46.50
71128;SHT30;59249;59.736;30.568;2023-04-15T00:28:41;1.84;46.58
71128;SHT30;59249;59.736;30.568;2023-04-15T00:31:10;1.76;46.73
71128;SHT30;59249;59.736;30.568;2023-04-15T00:33:39;1.87;46.78
71128;SHT30;59249;59.736;30.568;2023-04-15T00:36:08;1.81;46.74
71128;SHT30;59249;59.736;30.568;2023-04-15T00:38:46;1.76;46.84
71128;SHT30;59249;59.736;30.568;2023-04-15T00:41:15;1.83;46.83
71128;SHT30;59249;59.736;30.568;2023-04-15T00:43:46;1.78;47.06
71128;SHT30;59249;59.736;30.568;2023-04-15T00:46:18;1.78;46.91
71128;SHT30;59249;59.736;30.568;2023-04-15T00:48:49;1.77;47.05
71128;SHT30;59249;59.736;30.568;2023-04-15T00:51:18;1.78;47.10
71128;SHT30;59249;59.736;30.568;2023-04-15T00:53:47;1.65;47.16
71128;SHT30;59249;59.736;30.568;2023-04-15T00:56:16;1.76;47.41
71128;SHT30;59249;59.736;30.568;2023-04-15T00:58:47;1.70;47.30
71128;SHT30;59249;59.736;30.568;2023-04-15T01:01:20;1.72;47.31
71128;SHT30;59249;59.736;30.568;2023-04-15T01:03:49;1.74;47.35
71128;SHT30;59249;59.736;30.568;2023-04-15T01:06:18;1.74;47.63
71128;SHT30;59249;59.736;30.568;2023-04-15T01:08:47;1.81;47.40
71128;SHT30;59249;59.736;30.568;2023-04-15T01:11:17;1.70;47.46
71128;SHT30;59249;59.736;30.568;2023-04-15T01:13:48;1.72;47.59
71128;SHT30;59249;59.736;30.568;2023-04-15T01:16:19;1.67;47.30
71128;SHT30;59249;59.736;30.568;2023-04-15T01:18:48;1.68;47.32
71128;SHT30;59249;59.736;30.568;2023-04-15T01:21:18;1.81;47.23
71128;SHT30;59249;59.736;30.568;2023-04-15T01:23:49;1.64;47.44
71128;SHT30;59249;59.736;30.568;2023-04-15T01:26:24;1.73;47.32
71128;SHT30;59249;59.736;30.568;2023-04-15T01:28:53;1.74;47.61
71128;SHT30;59249;59.736;30.568;2023-04-15T01:31:23;1.74;47.45
71128;SHT30;59249;59.736;30.568;2023-04-15T01:33:52;1.69;47.46
71128;SHT30;59249;59.736;30.568;2023-04-15T01:36:40;1.73;47.51
71128;SHT30;59249;59.736;30.568;2023-04-15T01:39:08;1.78;47.65
71128;SHT30;59249;59.736;30.568;2023-04-15T01:41:38;1.74;47.55
71128;SHT30;59249;59.736;30.568;2023-04-15T01:44:09;1.64;47.48
71128;SHT30;59249;59.736;30.568;2023-04-15T01:46:40;1.70;47.69
71128;SHT30;59249;59.736;30.568;2023-04-15T01:49:10;1.70;47.75
71128;SHT30;59249;59.736;30.568;2023-04-15T01:51:40;1.81;47.40
71128;SHT30;59249;59.736;30.568;2023-04-15T01:54:10;1.77;47.32
71128;SHT30;59249;59.736;30.568;2023-04-15T01:56:41;1.73;47.63
71128;SHT30;59249;59.736;30.568;2023-04-15T01:59:11;1.68;47.94
71128;SHT30;59249;59.736;30.568;2023-04-15T02:01:41;1.81;48.14
71128;SHT30;59249;59.736;30.568;2023-04-15T02:04:11;2.05;49.56
71128;SHT30;59249;59.736;30.568;2023-04-15T02:06:44;2.13;48.00
71128;SHT30;59249;59.736;30.568;2023-04-15T02:09:14;2.19;47.76
71128;SHT30;59249;59.736;30.568;2023-04-15T02:11:47;2.21;47.23
71128;SHT30;59249;59.736;30.568;2023-04-15T02:14:18;2.29;48.02
71128;SHT30;59249;59.736;30.568;2023-04-15T02:16:48;2.44;47.28
71128;SHT30;59249;59.736;30.568;2023-04-15T02:19:18;2.37;47.25
71128;SHT30;59249;59.736;30.568;2023-04-15T02:21:48;2.45;46.60
71128;SHT30;59249;59.736;30.568;2023-04-15T02:24:19;2.33;46.29
71128;SHT30;59249;59.736;30.568;2023-04-15T02:26:50;2.44;47.05
71128;SHT30;59249;59.736;30.568;2023-04-15T02:29:20;2.55;46.74
71128;SHT30;59249;59.736;30.568;2023-04-15T02:31:50;2.62;45.96
71128;SHT30;59249;59.736;30.568;2023-04-15T02:34:20;2.72;46.36
71128;SHT30;59249;59.736;30.568;2023-04-15T02:36:50;2.76;46.24
71128;SHT30;59249;59.736;30.568;2023-04-15T02:39:25;2.85;45.91
71128;SHT30;59249;59.736;30.568;2023-04-15T02:41:56;2.92;45.54
71128;SHT30;59249;59.736;30.568;2023-04-15T02:44:27;2.93;45.02
71128;SHT30;59249;59.736;30.568;2023-04-15T02:47:01;2.89;44.69
71128;SHT30;59249;59.736;30.568;2023-04-15T02:49:32;2.93;44.48
71128;SHT30;59249;59.736;30.568;2023-04-15T02:52:02;3.04;44.97
71128;SHT30;59249;59.736;30.568;2023-04-15T02:54:32;3.02;44.42
71128;SHT30;59249;59.736;30.568;2023-04-15T02:57:04;3.21;44.88
71128;SHT30;59249;59.736;30.568;2023-04-15T02:59:35;3.29;44.29
71128;SHT30;59249;59.736;30.568;2023-04-15T03:02:06;3.32;44.17
71128;SHT30;59249;59.736;30.568;2023-04-15T03:04:38;3.28;44.12
71128;SHT30;59249;59.736;30.568;2023-04-15T03:07:08;3.43;44.46
71128;SHT30;59249;59.736;30.568;2023-04-15T03:09:38;3.47;43.82
71128;SHT30;59249;59.736;30.568;2023-04-15T03:12:10;3.53;43.78
71128;SHT30;59249;59.736;30.568;2023-04-15T03:14:40;3.37;43.67
71128;SHT30;59249;59.736;30.568;2023-04-15T03:17:10;3.30;44.04
71128;SHT30;59249;59.736;30.568;2023-04-15T03:19:39;3.28;43.73
71128;SHT30;59249;59.736;30.568;2023-04-15T03:22:09;3.45;44.15
71128;SHT30;59249;59.736;30.568;2023-04-15T03:24:39;3.61;44.13
71128;SHT30;59249;59.736;30.568;2023-04-15T03:27:10;3.69;43.76
71128;SHT30;59249;59.736;30.568;2023-04-15T03:29:41;3.76;43.78
71128;SHT30;59249;59.736;30.568;2023-04-15T03:32:11;3.71;43.57
71128;SHT30;59249;59.736;30.568;2023-04-15T03:34:43;3.62;42.93
71128;SHT30;59249;59.736;30.568;2023-04-15T03:37:13;3.48;43.67
71128;SHT30;59249;59.736;30.568;2023-04-15T03:39:42;3.64;43.08
71128;SHT30;59249;59.736;30.568;2023-04-15T03:42:14;3.74;42.84
71128;SHT30;59249;59.736;30.568;2023-04-15T03:44:44;3.63;42.68
71128;SHT30;59249;59.736;30.568;2023-04-15T03:47:14;3.83;43.03
71128;SHT30;59249;59.736;30.568;2023-04-15T03:49:44;3.85;42.47
71128;SHT30;59249;59.736;30.568;2023-04-15T03:52:14;3.87;42.70
71128;SHT30;59249;59.736;30.568;2023-04-15T03:54:44;3.93;42.47
71128;SHT30;59249;59.736;30.568;2023-04-15T03:57:16;3.88;42.34
71128;SHT30;59249;59.736;30.568;2023-04-15T03:59:46;3.87;42.62
71128;SHT30;59249;59.736;30.568;2023-04-15T04:02:16;3.96;42.45
71128;SHT30;59249;59.736;30.568;2023-04-15T04:04:46;3.97;42.24
71128;SHT30;59249;59.736;30.568;2023-04-15T04:07:17;4.05;42.59
71128;SHT30;59249;59.736;30.568;2023-04-15T04:09:47;4.02;42.26
71128;SHT30;59249;59.736;30.568;2023-04-15T04:12:18;4.06;42.28
71128;SHT30;59249;59.736;30.568;2023-04-15T04:14:48;4.16;41.99
71128;SHT30;59249;59.736;30.568;2023-04-15T04:17:18;4.24;41.97
71128;SHT30;59249;59.736;30.568;2023-04-15T04:19:48;4.13;41.78
71128;SHT30;59249;59.736;30.568;2023-04-15T04:22:21;4.25;41.90
71128;SHT30;59249;59.736;30.568;2023-04-15T04:24:52;4.36;42.02
71128;SHT30;59249;59.736;30.568;2023-04-15T04:27:23;4.26;41.71
71128;SHT30;59249;59.736;30.568;2023-04-15T04:29:53;4.43;41.81
71128;SHT30;59249;59.736;30.568;2023-04-15T04:32:25;4.50;41.66
71128;SHT30;59249;59.736;30.568;2023-04-15T04:34:55;4.35;41.75
71128;SHT30;59249;59.736;30.568;2023-04-15T04:37:25;4.50;41.63
71128;SHT30;59249;59.736;30.568;2023-04-15T04:39:55;4.42;41.65
71128;SHT30;59249;59.736;30.568;2023-04-15T04:42:28;4.58;41.95
71128;SHT30;59249;59.736;30.568;2023-04-15T04:44:59;4.71;41.74
71128;SHT30;59249;59.736;30.568;2023-04-15T04:47:30;4.65;41.40
71128;SHT30;59249;59.736;30.568;2023-04-15T04:50:00;4.75;41.39
71128;SHT30;59249;59.736;30.568;2023-04-15T04:52:30;4.87;41.56
71128;SHT30;59249;59.736;30.568;2023-04-15T04:55:00;4.94;41.56
71128;SHT30;59249;59.736;30.568;2023-04-15T04:57:31;4.92;41.42
71128;SHT30;59249;59.736;30.568;2023-04-15T05:00:04;4.91;41.37
71128;SHT30;59249;59.736;30.568;2023-04-15T05:02:35;5.03;41.33
71128;SHT30;59249;59.736;30.568;2023-04-15T05:05:07;5.04;41.40
71128;SHT30;59249;59.736;30.568;2023-04-15T05:07:38;5.12;41.41
71128;SHT30;59249;59.736;30.568;2023-04-15T05:10:09;5.23;41.27
71128;SHT30;59249;59.736;30.568;2023-04-15T05:12:40;5.21;41.17
71128;SHT30;59249;59.736;30.568;2023-04-15T05:15:11;5.16;41.05
71128;SHT30;59249;59.736;30.568;2023-04-15T05:17:43;5.34;41.32
71128;SHT30;59249;59.736;30.568;2023-04-15T05:20:16;5.67;40.82
71128;SHT30;59249;59.736;30.568;2023-04-15T05:22:54;5.77;40.32
71128;SHT30;59249;59.736;30.568;2023-04-15T05:25:28;5.78;40.21
71128;SHT30;59249;59.736;30.568;2023-04-15T05:27:59;5.83;40.24
71128;SHT30;59249;59.736;30.568;2023-04-15T05:30:29;5.84;40.26
71128;SHT30;59249;59.736;30.568;2023-04-15T05:32:59;5.93;40.20
71128;SHT30;59249;59.736;30.568;2023-04-15T05:35:29;6.03;40.24
71128;SHT30;59249;59.736;30.568;2023-04-15T05:37:59;6.14;39.64
71128;SHT30;59249;59.736;30.568;2023-04-15T05:40:29;5.93;39.83
71128;SHT30;59249;59.736;30.568;2023-04-15T05:43:01;6.08;40.02
71128;SHT30;59249;59.736;30.568;2023-04-15T05:45:31;6.01;39.69
71128;SHT30;59249;59.736;30.568;2023-04-15T05:48:01;6.19;39.82
71128;SHT30;59249;59.736;30.568;2023-04-15T05:50:31;6.20;39.69
71128;SHT30;59249;59.736;30.568;2023-04-15T05:53:01;6.56;39.73
71128;SHT30;59249;59.736;30.568;2023-04-15T05:55:30;6.35;38.83
71128;SHT30;59249;59.736;30.568;2023-04-15T05:58:02;6.56;39.49
71128;SHT30;59249;59.736;30.568;2023-04-15T06:00:32;6.47;39.29
71128;SHT30;59249;59.736;30.568;2023-04-15T06:03:02;6.56;39.52
71128;SHT30;59249;59.736;30.568;2023-04-15T06:05:32;6.68;39.01
71128;SHT30;59249;59.736;30.568;2023-04-15T06:08:03;6.64;39.03
71128;SHT30;59249;59.736;30.568;2023-04-15T06:10:34;6.59;39.17
71128;SHT30;59249;59.736;30.568;2023-04-15T06:13:06;6.51;39.08
71128;SHT30;59249;59.736;30.568;2023-04-15T06:15:36;6.51;39.04
71128;SHT30;59249;59.736;30.568;2023-04-15T06:18:06;6.63;38.99
71128;SHT30;59249;59.736;30.568;2023-04-15T06:20:36;6.53;38.98
71128;SHT30;59249;59.736;30.568;2023-04-15T06:23:06;6.61;39.18
71128;SHT30;59249;59.736;30.568;2023-04-15T06:25:35;6.61;38.75
71128;SHT30;59249;59.736;30.568;2023-04-15T06:28:07;6.52;38.98
71128;SHT30;59249;59.736;30.568;2023-04-15T06:30:37;6.73;39.07
71128;SHT30;59249;59.736;30.568;2023-04-15T06:33:07;6.64;38.63
71128;SHT30;59249;59.736;30.568;2023-04-15T06:35:38;6.49;38.57
71128;SHT30;59249;59.736;30.568;2023-04-15T06:38:08;6.55;38.92
71128;SHT30;59249;59.736;30.568;2023-04-15T06:40:38;6.63;38.74
71128;SHT30;59249;59.736;30.568;2023-04-15T06:43:09;6.49;38.59
71128;SHT30;59249;59.736;30.568;2023-04-15T06:45:39;6.74;38.57
71128;SHT30;59249;59.736;30.568;2023-04-15T06:48:09;6.78;38.16
71128;SHT30;59249;59.736;30.568;2023-04-15T06:50:42;6.98;38.16
71128;SHT30;59249;59.736;30.568;2023-04-15T06:53:12;6.87;38.10
71128;SHT30;59249;59.736;30.568;2023-04-15T06:55:44;6.91;38.18
71128;SHT30;59249;59.736;30.568;2023-04-15T06:58:15;7.00;38.17
71128;SHT30;59249;59.736;30.568;2023-04-15T07:00:45;7.03;38.17
71128;SHT30;59249;59.736;30.568;2023-04-15T07:03:15;7.10;38.06
71128;SHT30;59249;59.736;30.568;2023-04-15T07:05:45;6.98;37.84
71128;SHT30;59249;59.736;30.568;2023-04-15T07:08:15;7.07;37.94
71128;SHT30;59249;59.736;30.568;2023-04-15T07:10:45;7.03;37.89
71128;SHT30;59249;59.736;30.568;2023-04-15T07:13:17;7.09;38.06
71128;SHT30;59249;59.736;30.568;2023-04-15T07:15:46;7.03;38.04
71128;SHT30;59249;59.736;30.568;2023-04-15T07:18:16;7.17;37.85
71128;SHT30;59249;59.736;30.568;2023-04-15T07:20:46;7.26;37.46
71128;SHT30;59249;59.736;30.568;2023-04-15T07:23:16;7.35;37.50
71128;SHT30;59249;59.736;30.568;2023-04-15T07:25:46;7.45;37.58
71128;SHT30;59249;59.736;30.568;2023-04-15T07:28:17;7.62;37.80
71128;SHT30;59249;59.736;30.568;2023-04-15T07:30:47;7.65;37.39
71128;SHT30;59249;59.736;30.568;2023-04-15T07:33:18;7.62;37.30
71128;SHT30;59249;59.736;30.568;2023-04-15T07:35:48;7.70;37.07
71128;SHT30;59249;59.736;30.568;2023-04-15T07:38:18;7.70;37.17
71128;SHT30;59249;59.736;30.568;2023-04-15T07:40:48;7.79;36.90
71128;SHT30;59249;59.736;30.568;2023-04-15T07:43:19;7.89;36.91
71128;SHT30;59249;59.736;30.568;2023-04-15T07:45:50;8.01;36.94
71128;SHT30;59249;59.736;30.568;2023-04-15T07:48:20;8.11;36.88
71128;SHT30;59249;59.736;30.568;2023-04-15T07:50:50;8.22;36.53
71128;SHT30;59249;59.736;30.568;2023-04-15T07:53:20;8.20;36.35
71128;SHT30;59249;59.736;30.568;2023-04-15T07:55:49;8.33;36.47
71128;SHT30;59249;59.736;30.568;2023-04-15T07:58:21;8.41;36.38
71128;SHT30;59249;59.736;30.568;2023-04-15T08:00:50;8.38;36.32
71128;SHT30;59249;59.736;30.568;2023-04-15T08:03:22;8.56;36.25
71128;SHT30;59249;59.736;30.568;2023-04-15T08:05:52;8.72;36.22
71128;SHT30;59249;59.736;30.568;2023-04-15T08:08:23;8.77;35.89
71128;SHT30;59249;59.736;30.568;2023-04-15T08:10:52;8.54;36.14
71128;SHT30;59249;59.736;30.568;2023-04-15T08:13:24;8.22;35.77
71128;SHT30;59249;59.736;30.568;2023-04-15T08:16:15;8.26;36.42
71128;SHT30;59249;59.736;30.568;2023-04-15T08:18:47;8.13;36.27
71128;SHT30;59249;59.736;30.568;2023-04-15T08:21:41;8.07;36.51
71128;SHT30;59249;59.736;30.568;2023-04-15T08:24:11;8.16;36.48
71128;SHT30;59249;59.736;30.568;2023-04-15T08:26:41;8.20;36.89
71128;SHT30;59249;59.736;30.568;2023-04-15T08:29:13;8.28;36.21
71128;SHT30;59249;59.736;30.568;2023-04-15T08:31:43;8.36;35.97
71128;SHT30;59249;59.736;30.568;2023-04-15T08:34:15;8.26;36.33
71128;SHT30;59249;59.736;30.568;2023-04-15T08:36:45;8.36;36.07
71128;SHT30;59249;59.736;30.568;2023-04-15T08:39:15;8.21;36.36
71128;SHT30;59249;59.736;30.568;2023-04-15T08:41:47;8.40;36.19
71128;SHT30;59249;59.736;30.568;2023-04-15T08:44:19;8.40;36.04
71128;SHT30;59249;59.736;30.568;2023-04-15T08:46:51;8.62;35.98
71128;SHT30;59249;59.736;30.568;2023-04-15T08:49:26;8.77;36.08
71128;SHT30;59249;59.736;30.568;2023-04-15T08:51:59;8.84;35.88
71128;SHT30;59249;59.736;30.568;2023-04-15T08:54:29;8.60;35.57
71128;SHT30;59249;59.736;30.568;2023-04-15T08:56:59;8.50;35.65
71128;SHT30;59249;59.736;30.568;2023-04-15T08:59:31;8.56;35.72
71128;SHT30;59249;59.736;30.568;2023-04-15T09:02:02;8.65;35.81
71128;SHT30;59249;59.736;30.568;2023-04-15T09:04:33;8.67;35.94
71128;SHT30;59249;59.736;30.568;2023-04-15T09:07:03;8.83;35.94
71128;SHT30;59249;59.736;30.568;2023-04-15T09:09:33;9.05;35.86
71128;SHT30;59249;59.736;30.568;2023-04-15T09:12:04;9.25;35.81
71128;SHT30;59249;59.736;30.568;2023-04-15T09:14:36;9.40;35.44
71128;SHT30;59249;59.736;30.568;2023-04-15T09:17:09;9.46;34.83
71128;SHT30;59249;59.736;30.568;2023-04-15T09:19:40;9.59;34.63
71128;SHT30;59249;59.736;30.568;2023-04-15T09:22:09;9.40;34.96
71128;SHT30;59249;59.736;30.568;2023-04-15T09:24:39;9.24;35.19
71128;SHT30;59249;59.736;30.568;2023-04-15T09:27:10;9.35;35.60
71128;SHT30;59249;59.736;30.568;2023-04-15T09:29:49;9.46;35.12
71128;SHT30;59249;59.736;30.568;2023-04-15T09:32:19;9.60;34.81
71128;SHT30;59249;59.736;30.568;2023-04-15T09:34:52;9.54;34.60
71128;SHT30;59249;59.736;30.568;2023-04-15T09:37:34;9.69;34.58
71128;SHT30;59249;59.736;30.568;2023-04-15T09:40:06;9.66;34.69
71128;SHT30;59249;59.736;30.568;2023-04-15T09:42:54;9.49;34.59
71128;SHT30;59249;59.736;30.568;2023-04-15T09:45:25;9.49;35.07
71128;SHT30;59249;59.736;30.568;2023-04-15T09:47:58;9.59;35.05
71128;SHT30;59249;59.736;30.568;2023-04-15T09:50:29;9.65;34.78
71128;SHT30;59249;59.736;30.568;2023-04-15T09:53:03;9.64;34.28
71128;SHT30;59249;59.736;30.568;2023-04-15T09:55:33;9.40;34.80
71128;SHT30;59249;59.736;30.568;2023-04-15T09:58:08;9.34;35.03
71128;SHT30;59249;59.736;30.568;2023-04-15T10:00:40;9.45;35.47
71128;SHT30;59249;59.736;30.568;2023-04-15T10:03:11;9.56;35.33
71128;SHT30;59249;59.736;30.568;2023-04-15T10:05:42;9.54;35.00
71128;SHT30;59249;59.736;30.568;2023-04-15T10:08:12;9.44;34.78
71128;SHT30;59249;59.736;30.568;2023-04-15T10:10:45;9.47;35.09
71128;SHT30;59249;59.736;30.568;2023-04-15T10:13:18;9.45;34.81
71128;SHT30;59249;59.736;30.568;2023-04-15T10:15:55;9.64;34.50
71128;SHT30;59249;59.736;30.568;2023-04-15T10:18:27;9.73;34.54
71128;SHT30;59249;59.736;30.568;2023-04-15T10:20:59;9.82;34.80
71128;SHT30;59249;59.736;30.568;2023-04-15T10:23:29;9.78;34.88
71128;SHT30;59249;59.736;30.568;2023-04-15T10:26:01;9.68;34.95
71128;SHT30;59249;59.736;30.568;2023-04-15T10:28:33;9.75;35.01
71128;SHT30;59249;59.736;30.568;2023-04-15T10:31:05;9.83;35.30
71128;SHT30;59249;59.736;30.568;2023-04-15T10:33:36;10.04;34.97
71128;SHT30;59249;59.736;30.568;2023-04-15T10:36:07;10.14;34.89
71128;SHT30;59249;59.736;30.568;2023-04-15T10:38:39;10.10;34.84
71128;SHT30;59249;59.736;30.568;2023-04-15T10:41:19;9.80;34.25
71128;SHT30;59249;59.736;30.568;2023-04-15T10:43:52;9.85;34.56
71128;SHT30;59249;59.736;30.568;2023-04-15T10:46:36;9.95;34.89
71128;SHT30;59249;59.736;30.568;2023-04-15T10:49:07;10.14;34.56
71128;SHT30;59249;59.736;30.568;2023-04-15T10:51:42;10.19;34.74
71128;SHT30;59249;59.736;30.568;2023-04-15T10:54:15;10.24;34.59
71128;SHT30;59249;59.736;30.568;2023-04-15T10:56:50;10.11;34.43
71128;SHT30;59249;59.736;30.568;2023-04-15T10:59:21;10.16;34.85
71128;SHT30;59249;59.736;30.568;2023-04-15T11:01:54;10.26;34.96
71128;SHT30;59249;59.736;30.568;2023-04-15T11:04:54;10.57;35.08
71128;SHT30;59249;59.736;30.568;2023-04-15T11:07:48;10.72;35.03
71128;SHT30;59249;59.736;30.568;2023-04-15T11:10:52;10.96;34.42
71128;SHT30;59249;59.736;30.568;2023-04-15T11:13:27;11.09;31.96
71128;SHT30;59249;59.736;30.568;2023-04-15T11:16:01;11.20;31.26
71128;SHT30;59249;59.736;30.568;2023-04-15T11:18:33;11.18;31.16
71128;SHT30;59249;59.736;30.568;2023-04-15T11:21:07;11.27;31.35
71128;SHT30;59249;59.736;30.568;2023-04-15T11:23:39;11.31;31.77
71128;SHT30;59249;59.736;30.568;2023-04-15T11:26:12;11.44;31.84
71128;SHT30;59249;59.736;30.568;2023-04-15T11:28:44;11.55;32.26
71128;SHT30;59249;59.736;30.568;2023-04-15T11:31:16;11.62;32.10
71128;SHT30;59249;59.736;30.568;2023-04-15T11:33:56;11.66;32.10
71128;SHT30;59249;59.736;30.568;2023-04-15T11:36:28;11.66;31.85
71128;SHT30;59249;59.736;30.568;2023-04-15T11:38:59;11.72;32.03
71128;SHT30;59249;59.736;30.568;2023-04-15T11:41:29;11.73;31.97
71128;SHT30;59249;59.736;30.568;2023-04-15T11:43:59;11.75;31.47
71128;SHT30;59249;59.736;30.568;2023-04-15T11:46:30;11.90;31.78
71128;SHT30;59249;59.736;30.568;2023-04-15T11:49:01;11.99;31.24
71128;SHT30;59249;59.736;30.568;2023-04-15T11:51:33;11.93;31.29
71128;SHT30;59249;59.736;30.568;2023-04-15T11:54:03;11.97;31.28
71128;SHT30;59249;59.736;30.568;2023-04-15T11:56:32;11.89;31.60
71128;SHT30;59249;59.736;30.568;2023-04-15T11:59:01;11.87;31.43
71128;SHT30;59249;59.736;30.568;2023-04-15T12:01:31;11.96;31.30
71128;SHT30;59249;59.736;30.568;2023-04-15T12:04:10;11.87;31.15
71128;SHT30;59249;59.736;30.568;2023-04-15T12:06:39;11.83;30.96
71128;SHT30;59249;59.736;30.568;2023-04-15T12:09:10;11.82;31.30
71128;SHT30;59249;59.736;30.568;2023-04-15T12:11:44;11.77;31.31
71128;SHT30;59249;59.736;30.568;2023-04-15T12:14:23;11.76;31.30
71128;SHT30;59249;59.736;30.568;2023-04-15T12:16:56;11.69;31.47
71128;SHT30;59249;59.736;30.568;2023-04-15T12:19:30;11.63;31.65
71128;SHT30;59249;59.736;30.568;2023-04-15T12:22:02;11.66;31.55
71128;SHT30;59249;59.736;30.568;2023-04-15T12:24:33;11.71;31.98
71128;SHT30;59249;59.736;30.568;2023-04-15T12:27:04;11.71;32.22
71128;SHT30;59249;59.736;30.568;2023-04-15T12:29:35;11.73;32.19
71128;SHT30;59249;59.736;30.568;2023-04-15T12:32:06;11.85;31.97
71128;SHT30;59249;59.736;30.568;2023-04-15T12:34:39;11.82;31.76
71128;SHT30;59249;59.736;30.568;2023-04-15T12:37:10;11.81;31.47
71128;SHT30;59249;59.736;30.568;2023-04-15T12:39:41;11.85;31.86
71128;SHT30;59249;59.736;30.568;2023-04-15T12:42:11;11.83;31.77
71128;SHT30;59249;59.736;30.568;2023-04-15T12:44:43;11.88;31.59
71128;SHT30;59249;59.736;30.568;2023-04-15T12:47:12;12.02;31.47
71128;SHT30;59249;59.736;30.568;2023-04-15T12:49:42;12.16;31.13
71128;SHT30;59249;59.736;30.568;2023-04-15T12:52:11;12.24;31.03
71128;SHT30;59249;59.736;30.568;2023-04-15T12:54:40;12.10;30.66
71128;SHT30;59249;59.736;30.568;2023-04-15T12:57:08;12.31;30.70
71128;SHT30;59249;59.736;30.568;2023-04-15T12:59:37;12.36;30.58
71128;SHT30;59249;59.736;30.568;2023-04-15T13:02:06;12.33;30.40
71128;SHT30;59249;59.736;30.568;2023-04-15T13:04:35;12.41;30.41
71128;SHT30;59249;59.736;30.568;2023-04-15T13:07:05;12.15;30.63
71128;SHT30;59249;59.736;30.568;2023-04-15T13:09:34;12.17;31.03
71128;SHT30;59249;59.736;30.568;2023-04-15T13:12:03;12.09;30.82
71128;SHT30;59249;59.736;30.568;2023-04-15T13:14:32;11.98;30.48
71128;SHT30;59249;59.736;30.568;2023-04-15T13:17:00;12.09;30.70
71128;SHT30;59249;59.736;30.568;2023-04-15T13:19:35;12.06;30.36
71128;SHT30;59249;59.736;30.568;2023-04-15T13:22:06;11.97;30.22
71128;SHT30;59249;59.736;30.568;2023-04-15T13:24:35;11.91;30.02
71128;SHT30;59249;59.736;30.568;2023-04-15T13:27:03;11.72;29.84
71128;SHT30;59249;59.736;30.568;2023-04-15T13:29:33;11.63;30.10
71128;SHT30;59249;59.736;30.568;2023-04-15T13:32:02;11.69;30.18
71128;SHT30;59249;59.736;30.568;2023-04-15T13:34:30;11.72;30.30
71128;SHT30;59249;59.736;30.568;2023-04-15T13:37:05;11.59;30.21
71128;SHT30;59249;59.736;30.568;2023-04-15T13:39:34;11.49;30.12
71128;SHT30;59249;59.736;30.568;2023-04-15T13:42:03;11.38;30.41
71128;SHT30;59249;59.736;30.568;2023-04-15T13:44:32;11.47;30.28
71128;SHT30;59249;59.736;30.568;2023-04-15T13:47:01;11.31;30.65
71128;SHT30;59249;59.736;30.568;2023-04-15T13:49:30;11.29;30.57
71128;SHT30;59249;59.736;30.568;2023-04-15T13:51:58;11.31;30.72
71128;SHT30;59249;59.736;30.568;2023-04-15T13:54:29;11.31;30.90
71128;SHT30;59249;59.736;30.568;2023-04-15T13:57:04;11.27;31.13
71128;SHT30;59249;59.736;30.568;2023-04-15T13:59:33;11.36;31.01
71128;SHT30;59249;59.736;30.568;2023-04-15T14:02:02;11.30;31.03
71128;SHT30;59249;59.736;30.568;2023-04-15T14:04:31;11.24;30.92
71128;SHT30;59249;59.736;30.568;2023-04-15T14:07:00;11.24;31.14
71128;SHT30;59249;59.736;30.568;2023-04-15T14:09:33;11.15;31.22
71128;SHT30;59249;59.736;30.568;2023-04-15T14:12:03;11.17;31.22
71128;SHT30;59249;59.736;30.568;2023-04-15T14:14:32;11.21;30.95
71128;SHT30;59249;59.736;30.568;2023-04-15T14:17:01;11.13;31.19
71128;SHT30;59249;59.736;30.568;2023-04-15T14:19:31;10.98;31.35
71128;SHT30;59249;59.736;30.568;2023-04-15T14:22:00;10.76;31.61
71128;SHT30;59249;59.736;30.568;2023-04-15T14:24:29;10.89;31.81
71128;SHT30;59249;59.736;30.568;2023-04-15T14:27:00;10.92;32.04
71128;SHT30;59249;59.736;30.568;2023-04-15T14:29:28;10.99;31.46
71128;SHT30;59249;59.736;30.568;2023-04-15T14:31:57;11.07;31.50
71128;SHT30;59249;59.736;30.568;2023-04-15T14:34:38;10.96;31.87
71128;SHT30;59249;59.736;30.568;2023-04-15T14:37:07;11.01;31.66
71128;SHT30;59249;59.736;30.568;2023-04-15T14:39:36;11.08;31.66
71128;SHT30;59249;59.736;30.568;2023-04-15T14:42:06;10.87;31.77
71128;SHT30;59249;59.736;30.568;2023-04-15T14:44:35;10.94;31.95
71128;SHT30;59249;59.736;30.568;2023-04-15T14:47:04;11.17;31.90
71128;SHT30;59249;59.736;30.568;2023-04-15T14:49:33;11.13;31.70
71128;SHT30;59249;59.736;30.568;2023-04-15T14:52:02;11.11;31.81
71128;SHT30;59249;59.736;30.568;2023-04-15T14:54:31;11.15;31.67
71128;SHT30;59249;59.736;30.568;2023-04-15T14:56:59;11.13;31.68
71128;SHT30;59249;59.736;30.568;2023-04-15T14:59:30;11.31;31.81
71128;SHT30;59249;59.736;30.568;2023-04-15T15:01:59;11.39;31.33
71128;SHT30;59249;59.736;30.568;2023-04-15T15:04:28;11.19;30.65
71128;SHT30;59249;59.736;30.568;2023-04-15T15:06:59;11.25;31.15
71128;SHT30;59249;59.736;30.568;2023-04-15T15:09:28;11.43;31.15
71128;SHT30;59249;59.736;30.568;2023-04-15T15:11:57;11.37;30.97
71128;SHT30;59249;59.736;30.568;2023-04-15T15:14:26;11.49;31.11
71128;SHT30;59249;59.736;30.568;2023-04-15T15:16:56;11.64;31.19
71128;SHT30;59249;59.736;30.568;2023-04-15T15:19:25;11.72;31.16
71128;SHT30;59249;59.736;30.568;2023-04-15T15:21:53;11.73;31.12
71128;SHT30;59249;59.736;30.568;2023-04-15T15:24:22;11.83;31.29
71128;SHT30;59249;59.736;30.568;2023-04-15T15:26:51;11.87;31.20
71128;SHT30;59249;59.736;30.568;2023-04-15T15:29:20;11.98;31.15
71128;SHT30;59249;59.736;30.568;2023-04-15T15:31:49;11.97;31.17
71128;SHT30;59249;59.736;30.568;2023-04-15T15:34:19;12.01;31.21
71128;SHT30;59249;59.736;30.568;2023-04-15T15:36:48;12.02;31.69
71128;SHT30;59249;59.736;30.568;2023-04-15T15:39:17;11.89;31.25
71128;SHT30;59249;59.736;30.568;2023-04-15T15:41:45;12.01;31.18
71128;SHT30;59249;59.736;30.568;2023-04-15T15:44:14;12.07;31.34
71128;SHT30;59249;59.736;30.568;2023-04-15T15:46:43;12.23;31.18
71128;SHT30;59249;59.736;30.568;2023-04-15T15:49:12;12.20;30.94